createdAt,value
2019-03-10T00:00:44.064Z,46.87
2019-03-10T00:03:12.448Z,35.20
2019-03-10T00:05:40.868Z,38.83
2019-03-10T00:08:09.257Z,36.87
2019-03-10T00:10:37.647Z,44.07
2019-03-10T00:13:06.041Z,37.77
2019-03-10T00:15:34.489Z,42.53
2019-03-10T00:18:02.880Z,37.97
2019-03-10T00:20:31.270Z,37.60
2019-03-10T00:22:59.700Z,34.20
2019-03-10T00:25:28.085Z,33.30
2019-03-10T00:27:56.489Z,30.87
2019-03-10T00:30:24.884Z,34.13
2019-03-10T00:32:53.274Z,38.53
2019-03-10T00:35:21.697Z,40.93
2019-03-10T00:37:50.070Z,41.43
2019-03-10T00:40:42.733Z,42.43
2019-03-10T00:43:33.844Z,27.20
2019-03-10T00:46:38.750Z,32.07
2019-03-10T00:49:32.301Z,34.20
2019-03-10T00:52:12.572Z,30.17
2019-03-10T00:54:40.965Z,33.23
2019-03-10T00:57:09.412Z,31.40
2019-03-10T00:59:37.883Z,33.47
2019-03-10T01:02:06.269Z,18.23
2019-03-10T01:04:34.664Z,45.67
2019-03-10T01:07:03.182Z,34.63
2019-03-10T01:09:31.583Z,37.30
2019-03-10T01:12:00.101Z,30.87
2019-03-10T01:14:28.513Z,40.87
2019-03-10T01:16:58.560Z,36.53
2019-03-10T01:19:29.068Z,34.20
2019-03-10T01:21:58.997Z,34.70
2019-03-10T01:24:27.382Z,39.53
2019-03-10T01:26:55.789Z,35.63
2019-03-10T01:29:24.173Z,36.53
2019-03-10T01:32:30.044Z,45.97
2019-03-10T01:35:10.713Z,38.73
2019-03-10T01:37:39.108Z,37.13
2019-03-10T01:40:08.537Z,37.07
2019-03-10T01:42:36.929Z,43.13
2019-03-10T01:45:08.623Z,36.00
2019-03-10T01:47:37.026Z,41.80
2019-03-10T01:50:08.325Z,34.13
2019-03-10T01:52:36.706Z,49.10
2019-03-10T01:55:08.326Z,40.20
2019-03-10T01:57:36.725Z,37.13
2019-03-10T02:00:08.187Z,43.27
2019-03-10T02:02:36.595Z,38.87
2019-03-10T02:05:06.703Z,37.53
2019-03-10T02:07:35.113Z,39.57
2019-03-10T02:10:06.273Z,42.83
2019-03-10T02:12:34.672Z,31.73
2019-03-10T02:15:04.444Z,35.37
2019-03-10T02:17:32.829Z,35.67
2019-03-10T02:20:01.237Z,39.83
2019-03-10T02:22:29.624Z,40.67
2019-03-10T02:24:58.012Z,31.00
2019-03-10T02:27:26.416Z,39.57
2019-03-10T02:29:54.875Z,32.13
2019-03-10T02:32:23.266Z,30.90
2019-03-10T02:34:51.666Z,36.57
2019-03-10T02:37:20.073Z,30.20
2019-03-10T02:39:48.453Z,37.60
2019-03-10T02:42:16.841Z,30.90
2019-03-10T02:44:45.685Z,26.07
2019-03-10T02:47:14.055Z,32.33
2019-03-10T02:49:42.451Z,24.43
2019-03-10T02:52:10.859Z,33.23
2019-03-10T02:54:39.257Z,36.13
2019-03-10T02:57:07.653Z,33.67
2019-03-10T02:59:36.053Z,33.53
2019-03-10T03:02:04.914Z,34.90
2019-03-10T03:04:33.308Z,32.37
2019-03-10T03:07:01.710Z,27.37
2019-03-10T03:09:30.102Z,33.33
2019-03-10T03:11:58.509Z,21.93
2019-03-10T03:14:26.908Z,27.40
2019-03-10T03:16:55.309Z,26.33
2019-03-10T03:19:23.711Z,25.67
2019-03-10T03:21:52.108Z,32.53
2019-03-10T03:24:20.482Z,27.17
2019-03-10T03:26:48.898Z,25.13
2019-03-10T03:29:17.280Z,26.40
2019-03-10T03:31:45.682Z,27.83
2019-03-10T03:34:14.090Z,25.93
2019-03-10T03:36:42.479Z,30.40
2019-03-10T03:39:25.855Z,25.20
2019-03-10T03:41:54.243Z,42.43
2019-03-10T03:44:22.633Z,33.20
2019-03-10T03:46:51.033Z,29.20
2019-03-10T03:49:19.433Z,45.03
2019-03-10T03:51:47.817Z,43.93
2019-03-10T03:54:16.192Z,34.90
2019-03-10T03:56:44.854Z,34.37
2019-03-10T03:59:13.246Z,36.70
2019-03-10T04:01:55.577Z,44.03
2019-03-10T04:04:23.963Z,34.07
2019-03-10T04:06:52.377Z,34.40
2019-03-10T04:09:21.413Z,36.43
2019-03-10T04:11:49.806Z,36.67
2019-03-10T04:14:18.218Z,39.53
2019-03-10T04:16:46.601Z,35.63
2019-03-10T04:19:14.999Z,48.73
2019-03-10T04:21:43.396Z,34.83
2019-03-10T04:24:11.855Z,45.93
2019-03-10T04:26:40.258Z,45.57
2019-03-10T04:29:08.647Z,37.37
2019-03-10T04:31:37.287Z,39.63
2019-03-10T04:34:05.739Z,40.77
2019-03-10T04:36:34.147Z,33.53
2019-03-10T04:39:02.715Z,52.77
2019-03-10T04:41:31.104Z,36.97
2019-03-10T04:43:59.509Z,30.93
2019-03-10T04:46:27.898Z,38.97
2019-03-10T04:48:56.288Z,28.33
2019-03-10T04:51:24.689Z,40.40
2019-03-10T04:53:53.070Z,32.67
2019-03-10T04:56:25.768Z,45.80
2019-03-10T04:58:54.158Z,41.00
2019-03-10T05:01:23.130Z,35.27
2019-03-10T05:03:51.529Z,28.97
2019-03-10T05:06:19.929Z,66.83
2019-03-10T05:08:48.340Z,67.40
2019-03-10T05:11:16.730Z,55.53
2019-03-10T05:13:45.184Z,98.10
2019-03-10T05:16:13.588Z,46.47
2019-03-10T05:18:41.990Z,32.33
2019-03-10T05:21:10.376Z,46.87
2019-03-10T05:23:41.316Z,39.07
2019-03-10T05:26:09.706Z,28.77
2019-03-10T05:28:41.169Z,34.93
2019-03-10T05:31:09.569Z,34.50
2019-03-10T05:33:37.960Z,30.53
2019-03-10T05:36:06.347Z,29.17
2019-03-10T05:38:34.740Z,24.10
2019-03-10T05:41:03.134Z,28.40
2019-03-10T05:43:31.526Z,36.77
2019-03-10T05:45:59.921Z,27.37
2019-03-10T05:48:28.321Z,36.27
2019-03-10T05:50:56.713Z,32.47
2019-03-10T05:53:25.105Z,26.93
2019-03-10T05:55:53.508Z,36.87
2019-03-10T05:58:21.896Z,34.53
2019-03-10T06:00:50.304Z,33.17
2019-03-10T06:03:18.690Z,29.33
2019-03-10T06:05:47.155Z,20.23
2019-03-10T06:08:15.545Z,13.40
2019-03-10T06:10:43.941Z,24.27
2019-03-10T06:13:12.333Z,18.63
2019-03-10T06:15:40.738Z,22.27
2019-03-10T06:18:13.455Z,18.27
2019-03-10T06:20:39.271Z,27.23
2019-03-10T06:23:07.654Z,19.77
2019-03-10T06:25:36.046Z,36.10
2019-03-10T06:28:04.513Z,15.57
2019-03-10T06:30:32.909Z,20.07
2019-03-10T06:33:01.552Z,20.87
2019-03-10T06:35:30.037Z,22.17
2019-03-10T06:37:58.493Z,20.73
2019-03-10T06:40:32.283Z,22.40
2019-03-10T06:42:57.016Z,22.87
2019-03-10T06:45:25.400Z,24.07
2019-03-10T06:47:54.045Z,26.20
2019-03-10T06:50:22.456Z,25.90
2019-03-10T06:52:50.849Z,19.80
2019-03-10T06:55:19.238Z,31.40
2019-03-10T06:57:47.648Z,23.87
2019-03-10T07:00:17.679Z,24.90
2019-03-10T07:02:46.240Z,33.67
2019-03-10T07:05:14.640Z,37.07
2019-03-10T07:07:43.032Z,26.77
2019-03-10T07:10:14.350Z,14.37
2019-03-10T07:12:43.624Z,23.73
2019-03-10T07:15:14.453Z,29.13
2019-03-10T07:17:42.853Z,27.27
2019-03-10T07:20:14.368Z,20.37
2019-03-10T07:22:42.829Z,24.57
2019-03-10T07:25:11.305Z,18.90
2019-03-10T07:27:41.330Z,20.30
2019-03-10T07:30:30.243Z,22.53
2019-03-10T07:33:12.152Z,22.77
2019-03-10T07:35:45.050Z,19.37
2019-03-10T07:38:31.657Z,32.40
2019-03-10T07:41:19.805Z,21.70
2019-03-10T07:43:49.871Z,14.93
2019-03-10T07:46:25.972Z,16.43
2019-03-10T07:48:58.904Z,14.77
2019-03-10T07:51:41.176Z,17.30
2019-03-10T07:54:17.225Z,17.63
2019-03-10T07:56:52.889Z,12.83
2019-03-10T07:59:22.924Z,18.80
2019-03-10T08:01:55.708Z,17.63
2019-03-10T08:05:01.552Z,16.23
2019-03-10T08:07:40.743Z,16.40
2019-03-10T08:10:14.273Z,15.33
2019-03-10T08:12:44.299Z,9.03
2019-03-10T08:15:14.339Z,9.73
2019-03-10T08:17:47.054Z,9.37
2019-03-10T08:20:19.773Z,5.37
2019-03-10T08:22:49.806Z,4.23
2019-03-10T08:25:25.762Z,3.03
2019-03-10T08:28:01.844Z,2.50
2019-03-10T08:30:42.457Z,3.40
2019-03-10T08:33:28.990Z,2.20
2019-03-10T08:36:02.014Z,2.80
2019-03-10T08:38:41.146Z,1.87
2019-03-10T08:41:11.207Z,2.20
2019-03-10T08:43:41.236Z,3.23
2019-03-10T08:46:14.092Z,4.27
2019-03-10T08:48:49.921Z,5.20
2019-03-10T08:51:20.735Z,5.47
2019-03-10T08:53:59.581Z,5.00
2019-03-10T08:56:32.418Z,5.93
2019-03-10T08:59:08.234Z,3.97
2019-03-10T09:01:44.050Z,9.37
2019-03-10T09:04:19.832Z,6.13
2019-03-10T09:06:49.879Z,10.43
2019-03-10T09:09:34.960Z,6.83
2019-03-10T09:12:05.040Z,9.50
2019-03-10T09:14:35.159Z,7.07
2019-03-10T09:17:10.718Z,7.60
2019-03-10T09:19:55.949Z,8.90
2019-03-10T09:22:28.854Z,9.30
2019-03-10T09:25:01.646Z,11.53
2019-03-10T09:27:37.414Z,9.17
2019-03-10T09:30:10.513Z,10.77
2019-03-10T09:32:49.308Z,5.83
2019-03-10T09:35:19.349Z,8.83
2019-03-10T09:37:58.237Z,14.20
2019-03-10T09:40:28.257Z,9.97
2019-03-10T09:43:01.434Z,9.40
2019-03-10T09:45:34.376Z,7.43
2019-03-10T09:48:20.643Z,7.50
2019-03-10T09:50:59.499Z,9.37
2019-03-10T09:53:29.551Z,8.70
2019-03-10T09:55:59.581Z,7.60
2019-03-10T09:58:29.613Z,9.07
2019-03-10T10:01:05.413Z,7.83
2019-03-10T10:03:38.173Z,10.27
2019-03-10T10:06:14.121Z,12.60
2019-03-10T10:08:47.033Z,9.97
2019-03-10T10:11:17.089Z,10.60
2019-03-10T10:13:49.896Z,12.67
2019-03-10T10:16:26.014Z,8.23
2019-03-10T10:19:11.239Z,16.53
2019-03-10T10:21:44.001Z,12.07
2019-03-10T10:24:14.081Z,15.23
2019-03-10T10:26:56.266Z,14.40
2019-03-10T10:29:42.478Z,13.67
2019-03-10T10:32:12.522Z,14.10
2019-03-10T10:34:42.573Z,13.67
2019-03-10T10:37:12.769Z,20.77
2019-03-10T10:39:58.081Z,15.63
2019-03-10T10:42:28.125Z,14.33
2019-03-10T10:45:00.729Z,12.50
2019-03-10T10:47:46.010Z,15.27
2019-03-10T10:50:31.965Z,12.93
2019-03-10T10:53:02.411Z,17.57
2019-03-10T10:55:38.220Z,19.17
2019-03-10T10:58:08.229Z,18.70
2019-03-10T11:00:38.273Z,17.63
2019-03-10T11:03:24.382Z,11.30
2019-03-10T11:06:06.789Z,17.50
2019-03-10T11:08:46.026Z,18.27
2019-03-10T11:11:19.004Z,11.33
2019-03-10T11:14:04.109Z,16.30
2019-03-10T11:16:45.316Z,18.27
2019-03-10T11:19:17.418Z,15.33
2019-03-10T11:21:59.628Z,11.83
2019-03-10T11:24:29.690Z,16.23
2019-03-10T11:27:15.962Z,11.13
2019-03-10T11:30:01.232Z,18.10
2019-03-10T11:32:31.281Z,18.27
2019-03-10T11:35:19.500Z,22.80
2019-03-10T11:37:55.215Z,7.83
2019-03-10T11:40:25.253Z,15.10
2019-03-10T11:42:58.006Z,17.63
2019-03-10T11:45:30.765Z,14.07
2019-03-10T11:48:03.822Z,16.20
2019-03-10T11:50:46.145Z,18.93
2019-03-10T11:53:19.375Z,19.90
2019-03-10T11:55:47.946Z,22.47
2019-03-10T11:58:17.990Z,18.23
2019-03-10T12:00:50.437Z,20.57
2019-03-10T12:03:56.367Z,17.47
2019-03-10T12:06:35.629Z,11.70
2019-03-10T12:09:07.265Z,22.73
2019-03-10T12:11:35.742Z,25.77
2019-03-10T12:14:04.138Z,23.70
2019-03-10T12:16:32.539Z,21.17
2019-03-10T12:19:00.934Z,22.47
2019-03-10T12:21:29.329Z,20.30
2019-03-10T12:23:57.717Z,23.20
2019-03-10T12:26:26.136Z,23.00
2019-03-10T12:28:54.524Z,20.93
2019-03-10T12:31:22.917Z,22.30
2019-03-10T12:33:51.331Z,27.23
2019-03-10T12:36:19.741Z,20.57
2019-03-10T12:38:48.138Z,23.67
2019-03-10T12:41:16.554Z,13.37
2019-03-10T12:43:44.950Z,19.57
2019-03-10T12:46:13.349Z,18.83
2019-03-10T12:48:41.764Z,16.47
2019-03-10T12:51:10.167Z,23.50
2019-03-10T12:53:38.565Z,16.40
2019-03-10T12:56:06.981Z,14.70
2019-03-10T12:58:35.385Z,17.23
2019-03-10T13:01:06.530Z,23.77
2019-03-10T13:03:33.938Z,18.63
2019-03-10T13:06:02.377Z,14.47
2019-03-10T13:08:30.796Z,17.10
2019-03-10T13:10:59.203Z,20.50
2019-03-10T13:13:27.598Z,15.37
2019-03-10T13:15:55.998Z,12.37
2019-03-10T13:18:24.411Z,15.20
2019-03-10T13:20:52.816Z,13.13
2019-03-10T13:23:21.226Z,6.20
2019-03-10T13:25:49.622Z,8.33
2019-03-10T13:28:18.032Z,4.97
2019-03-10T13:30:46.433Z,3.33
2019-03-10T13:33:14.881Z,5.77
2019-03-10T13:35:43.363Z,3.47
2019-03-10T13:38:11.750Z,6.10
2019-03-10T13:40:40.226Z,3.13
2019-03-10T13:43:08.626Z,3.03
2019-03-10T13:45:37.029Z,4.67
2019-03-10T13:48:05.435Z,5.37
2019-03-10T13:50:33.859Z,5.53
2019-03-10T13:53:02.253Z,4.63
2019-03-10T13:55:30.671Z,4.27
2019-03-10T13:57:59.062Z,5.07
2019-03-10T14:00:27.491Z,6.00
2019-03-10T14:02:56.741Z,3.83
2019-03-10T14:05:25.239Z,3.33
2019-03-10T14:07:53.637Z,6.13
2019-03-10T14:10:22.064Z,4.90
2019-03-10T14:12:50.458Z,11.67
2019-03-10T14:15:19.019Z,4.73
2019-03-10T14:17:47.405Z,4.67
2019-03-10T14:20:17.000Z,5.17
2019-03-10T14:22:45.437Z,9.87
2019-03-10T14:25:15.980Z,3.67
2019-03-10T14:27:44.517Z,5.37
2019-03-10T14:30:16.244Z,3.20
2019-03-10T14:32:44.723Z,6.77
2019-03-10T14:35:13.764Z,5.03
2019-03-10T14:37:42.169Z,5.83
2019-03-10T14:40:18.804Z,5.73
2019-03-10T14:42:47.231Z,7.37
2019-03-10T14:45:19.356Z,4.87
2019-03-10T14:47:47.809Z,3.57
2019-03-10T14:50:18.957Z,4.33
2019-03-10T14:52:47.421Z,7.50
2019-03-10T14:55:22.710Z,4.60
2019-03-10T14:57:51.113Z,4.10
2019-03-10T15:00:27.990Z,6.77
2019-03-10T15:02:56.517Z,5.23
2019-03-10T15:05:24.999Z,4.60
2019-03-10T15:07:53.389Z,3.83
2019-03-10T15:10:21.785Z,3.03
2019-03-10T15:12:50.195Z,2.83
2019-03-10T15:15:22.829Z,4.13
2019-03-10T15:17:50.733Z,6.37
2019-03-10T15:20:21.460Z,7.60
2019-03-10T15:22:49.411Z,3.33
2019-03-10T15:25:19.133Z,2.83
2019-03-10T15:27:47.529Z,5.27
2019-03-10T15:30:21.793Z,4.67
2019-03-10T15:32:50.363Z,3.57
2019-03-10T15:35:18.751Z,4.90
2019-03-10T15:37:47.162Z,1.77
2019-03-10T15:40:17.772Z,2.17
2019-03-10T15:42:46.346Z,3.60
2019-03-10T15:45:16.959Z,4.73
2019-03-10T15:47:46.229Z,2.93
2019-03-10T15:50:29.897Z,5.70
2019-03-10T15:52:58.434Z,6.77
2019-03-10T15:55:26.855Z,5.67
2019-03-10T15:57:55.248Z,3.63
2019-03-10T16:00:28.506Z,4.63
2019-03-10T16:02:56.968Z,2.97
2019-03-10T16:05:25.373Z,5.70
2019-03-10T16:07:53.772Z,3.43
2019-03-10T16:10:22.254Z,2.80
2019-03-10T16:12:50.649Z,3.77
2019-03-10T16:15:21.776Z,2.43
2019-03-10T16:17:50.173Z,4.07
2019-03-10T16:20:38.024Z,3.27
2019-03-10T16:23:06.408Z,5.00
2019-03-10T16:25:34.794Z,1.40
2019-03-10T16:28:03.210Z,1.00
2019-03-10T16:30:31.618Z,1.53
2019-03-10T16:33:00.075Z,1.73
2019-03-10T16:35:28.541Z,1.87
2019-03-10T16:37:56.953Z,3.17
2019-03-10T16:40:25.361Z,5.63
2019-03-10T16:42:53.743Z,3.47
2019-03-10T16:45:24.903Z,3.57
2019-03-10T16:47:53.366Z,1.30
2019-03-10T16:50:24.565Z,1.47
2019-03-10T16:52:52.970Z,5.27
2019-03-10T16:55:21.426Z,4.87
2019-03-10T16:57:49.804Z,2.70
2019-03-10T17:00:20.992Z,3.63
2019-03-10T17:02:51.025Z,3.77
2019-03-10T17:05:21.350Z,2.83
2019-03-10T17:07:50.098Z,3.93
2019-03-10T17:10:26.649Z,5.37
2019-03-10T17:12:55.045Z,3.93
2019-03-10T17:15:42.812Z,2.33
2019-03-10T17:18:11.231Z,7.43
2019-03-10T17:20:39.676Z,1.97
2019-03-10T17:23:08.092Z,2.23
2019-03-10T17:25:36.492Z,5.93
2019-03-10T17:28:05.036Z,5.60
2019-03-10T17:30:33.491Z,1.67
2019-03-10T17:33:01.879Z,4.67
2019-03-10T17:35:30.266Z,3.17
2019-03-10T17:37:58.671Z,4.80
2019-03-10T17:40:27.121Z,4.90
2019-03-10T17:42:55.553Z,4.33
2019-03-10T17:45:27.833Z,3.83
2019-03-10T17:47:56.208Z,2.43
2019-03-10T17:50:24.620Z,4.50
2019-03-10T17:52:53.004Z,4.47
2019-03-10T17:55:23.746Z,3.03
2019-03-10T17:57:52.162Z,2.20
2019-03-10T18:00:39.068Z,3.27
2019-03-10T18:03:07.472Z,2.63
2019-03-10T18:05:35.850Z,5.10
2019-03-10T18:08:04.360Z,4.93
2019-03-10T18:10:32.749Z,3.80
2019-03-10T18:13:01.143Z,5.33
2019-03-10T18:15:29.540Z,7.10
2019-03-10T18:17:57.933Z,3.90
2019-03-10T18:20:26.324Z,6.20
2019-03-10T18:22:54.725Z,5.57
2019-03-10T18:25:23.151Z,10.20
2019-03-10T18:27:51.533Z,6.40
2019-03-10T18:30:25.168Z,8.67
2019-03-10T18:32:53.663Z,10.10
2019-03-10T18:35:22.077Z,6.03
2019-03-10T18:37:50.566Z,8.30
2019-03-10T18:40:21.234Z,5.47
2019-03-10T18:42:49.618Z,7.23
2019-03-10T18:45:20.311Z,7.77
2019-03-10T18:47:48.743Z,5.47
2019-03-10T18:50:27.646Z,5.27
2019-03-10T18:52:56.054Z,7.40
2019-03-10T18:55:24.574Z,5.70
2019-03-10T18:57:53.031Z,7.67
2019-03-10T19:00:27.012Z,6.83
2019-03-10T19:02:56.165Z,5.90
2019-03-10T19:05:24.625Z,5.13
2019-03-10T19:07:53.079Z,6.13
2019-03-10T19:10:21.473Z,6.30
2019-03-10T19:12:49.883Z,5.20
2019-03-10T19:15:20.778Z,6.20
2019-03-10T19:17:49.247Z,7.60
2019-03-10T19:20:17.700Z,5.77
2019-03-10T19:22:46.187Z,8.73
2019-03-10T19:25:18.747Z,8.63
2019-03-10T19:27:47.130Z,9.57
2019-03-10T19:30:18.410Z,6.87
2019-03-10T19:32:46.814Z,5.73
2019-03-10T19:35:16.066Z,5.53
2019-03-10T19:37:44.548Z,2.63
2019-03-10T19:40:18.133Z,5.50
2019-03-10T19:42:46.605Z,5.70
2019-03-10T19:45:20.363Z,5.17
2019-03-10T19:47:48.773Z,6.73
2019-03-10T19:50:28.090Z,3.47
2019-03-10T19:52:56.688Z,6.50
2019-03-10T19:55:25.081Z,2.03
2019-03-10T19:57:53.562Z,5.30
2019-03-10T20:00:23.093Z,3.40
2019-03-10T20:02:51.509Z,6.50
2019-03-10T20:05:19.897Z,2.07
2019-03-10T20:07:48.303Z,2.53
2019-03-10T20:10:18.792Z,1.00
2019-03-10T20:12:47.251Z,3.47
2019-03-10T20:15:23.281Z,3.30
2019-03-10T20:17:51.728Z,3.53
2019-03-10T20:20:28.924Z,4.40
2019-03-10T20:22:57.406Z,3.57
2019-03-10T20:25:25.862Z,2.93
2019-03-10T20:27:54.301Z,3.93
2019-03-10T20:30:26.911Z,1.50
2019-03-10T20:32:55.301Z,4.07
2019-03-10T20:35:23.705Z,5.67
2019-03-10T20:37:52.087Z,4.43
2019-03-10T20:40:27.893Z,8.27
2019-03-10T20:42:56.286Z,9.60
2019-03-10T20:45:25.016Z,6.50
2019-03-10T20:47:56.115Z,6.30
2019-03-10T20:50:23.599Z,10.13
2019-03-10T20:52:51.989Z,10.90
2019-03-10T20:55:20.447Z,10.57
2019-03-10T20:57:48.836Z,9.57
2019-03-10T21:00:24.760Z,8.53
2019-03-10T21:02:53.163Z,12.10
2019-03-10T21:05:21.558Z,9.20
2019-03-10T21:07:49.961Z,12.03
2019-03-10T21:10:26.370Z,8.97
2019-03-10T21:12:54.769Z,7.73
2019-03-10T21:15:26.168Z,12.40
2019-03-10T21:17:55.110Z,13.30
2019-03-10T21:20:25.333Z,13.53
2019-03-10T21:22:53.909Z,7.60
2019-03-10T21:25:30.615Z,9.80
2019-03-10T21:27:59.081Z,8.63
2019-03-10T21:30:35.474Z,11.07
2019-03-10T21:33:03.949Z,10.40
2019-03-10T21:35:33.534Z,7.70
2019-03-10T21:38:02.114Z,8.23
2019-03-10T21:40:32.934Z,7.50
2019-03-10T21:43:01.321Z,9.07
2019-03-10T21:45:29.790Z,10.03
2019-03-10T21:47:58.172Z,6.83
2019-03-10T21:50:26.565Z,10.87
2019-03-10T21:52:54.968Z,7.53
2019-03-10T21:55:23.371Z,11.03
2019-03-10T21:57:51.760Z,9.10
2019-03-10T22:00:22.938Z,10.03
2019-03-10T22:02:51.351Z,6.90
2019-03-10T22:05:19.754Z,9.50
2019-03-10T22:07:48.153Z,7.70
2019-03-10T22:10:26.857Z,12.43
2019-03-10T22:12:51.033Z,7.07
2019-03-10T22:15:21.780Z,7.40
2019-03-10T22:17:50.179Z,7.63
2019-03-10T22:20:20.596Z,8.93
2019-03-10T22:22:50.309Z,11.97
2019-03-10T22:25:18.814Z,9.37
2019-03-10T22:27:47.211Z,14.00
2019-03-10T22:30:21.394Z,8.63
2019-03-10T22:32:49.852Z,12.50
2019-03-10T22:35:18.254Z,10.67
2019-03-10T22:37:46.663Z,13.33
2019-03-10T22:40:19.190Z,12.50
2019-03-10T22:42:47.584Z,7.23
2019-03-10T22:45:21.600Z,11.37
2019-03-10T22:47:49.990Z,11.93
2019-03-10T22:50:18.388Z,11.80
2019-03-10T22:52:46.851Z,10.13
2019-03-10T22:55:16.508Z,12.90
2019-03-10T22:57:45.785Z,14.17
2019-03-10T23:00:24.610Z,11.37
2019-03-10T23:02:53.017Z,14.43
2019-03-10T23:05:21.407Z,12.70
2019-03-10T23:07:49.789Z,9.37
2019-03-10T23:10:18.182Z,14.23
2019-03-10T23:12:46.644Z,16.27
2019-03-10T23:15:15.176Z,12.83
2019-03-10T23:17:43.557Z,4.03
2019-03-10T23:20:15.068Z,13.30
2019-03-10T23:22:43.449Z,8.87
2019-03-10T23:25:13.225Z,11.57
2019-03-10T23:27:41.618Z,9.67
2019-03-10T23:30:13.072Z,13.87
2019-03-10T23:32:41.549Z,13.57
2019-03-10T23:35:10.083Z,11.87
2019-03-10T23:37:38.483Z,13.40
2019-03-10T23:40:09.962Z,11.33
2019-03-10T23:42:38.344Z,10.77
2019-03-10T23:45:09.381Z,13.97
2019-03-10T23:47:37.788Z,17.33
2019-03-10T23:50:09.413Z,15.80
2019-03-10T23:52:37.809Z,5.60
2019-03-10T23:55:09.203Z,8.97
2019-03-10T23:57:37.602Z,11.57
